Terminal Aerodrome Forecast
Issued by NWS

Home | Current Version | Previous Version | Text Only | Print | Product List | Glossary On
Versions: 1 2 3 4 5 6 7 8 9 10 11 12 13 14 15 16 17 18
000
FTUS45 KPIH 230520
TAFSUN
TAF
KSUN 230520Z 2306/2412 VRB04KT P6SM FEW015 SCT250
     FM231800 12006KT P6SM SCT020 BKN030
     FM240300 33009KT 5SM BR OVC020
      AMD LTD TO CLD VIS AND WIND TIL 231400=

USA.gov is the U.S. government's official web portal to all federal, state and local government web resources and services.